Euskara    
Meteorología y climatología de Navarra
Datos de la estación - Meteo Navarra

Estación de Aoiz GN

Altitud 534 m.


Datos desde el 08/04/2021 hasta el 09/04/2021 en horario solar
Los datos son PROVISIONALES

Anterior Página 1 de 1 Siguiente Descargar: Formato para Excel 2000 o superior   Formato csv   Formato para OpenOffice Calc
Fecha Temperatura Humedad relativa Radiación global Insolación Precipitación Vel. viento 10 m Vel. viento 10 m Dir. viento 10 m
°C % W/m² s l/m² m/s km/h °
08/04/2021 0:00 2.2 74 0.0 0 0.0 0.2 0.5 264
08/04/2021 0:10 2.3 75 0.0 0 0.0 0.1 0.5 139
08/04/2021 0:20 2.1 77 0.0 0 0.0 0.1 0.4 106
08/04/2021 0:30 2.1 78 0.0 0 0.0 0.0 0.1 97
08/04/2021 0:40 2.1 78 0.0 0 0.0 0.3 1.2 73
08/04/2021 0:50 1.9 81 0.0 0 0.0 0.8 2.9 52
08/04/2021 1:00 1.8 81 0.0 0 0.0 0.7 2.4 14
08/04/2021 1:10 2.0 81 0.0 0 0.0 0.2 0.8 75
08/04/2021 1:20 1.7 82 0.0 0 0.0 1.2 4.2 61
08/04/2021 1:30 1.7 84 0.0 0 0.0 0.7 2.6 70
08/04/2021 1:40 2.0 84 0.0 0 0.0 1.1 4.0 70
08/04/2021 1:50 2.1 84 0.0 0 0.0 2.0 7.2 27
08/04/2021 2:00 2.2 82 0.0 0 0.0 1.2 4.2 58
08/04/2021 2:10 2.0 84 0.0 0 0.0 1.0 3.6 76
08/04/2021 2:20 1.9 85 0.0 0 0.0 1.0 3.7 77
08/04/2021 2:30 1.8 86 0.0 0 0.0 1.1 3.9 57
08/04/2021 2:40 1.8 84 0.0 0 0.0 0.2 0.8 109
08/04/2021 2:50 1.5 84 0.0 0 0.0 0.1 0.4 97
08/04/2021 3:00 1.5 85 0.0 0 0.0 0.9 3.3 47
08/04/2021 3:10 1.3 87 0.0 0 0.0 1.0 3.7 90
08/04/2021 3:20 1.2 89 0.0 0 0.0 0.9 3.1 86
08/04/2021 3:30 1.3 88 0.0 0 0.0 0.5 1.9 6
08/04/2021 3:40 1.2 88 0.0 0 0.0 0.2 0.6 1
08/04/2021 3:50 1.2 89 0.0 0 0.0 0.9 3.1 52
08/04/2021 4:00 1.3 87 0.0 0 0.0 0.5 1.8 329
08/04/2021 4:10 1.1 87 0.0 0 0.0 0.1 0.3 321
08/04/2021 4:20 0.9 89 0.0 0 0.0 0.8 2.8 30
08/04/2021 4:30 0.8 90 0.0 0 0.0 0.5 1.9 215
08/04/2021 4:40 0.9 89 0.0 0 0.0 0.3 0.9 300
08/04/2021 4:50 1.0 89 0.0 0 0.0 0.0 0.0 338
08/04/2021 5:00 1.0 89 0.0 0 0.0 0.0 0.0 338
08/04/2021 5:10 0.9 89 0.0 0 0.0 0.9 3.1 50
08/04/2021 5:20 0.6 91 0.0 0 0.0 0.7 2.4 62
08/04/2021 5:30 0.9 91 0.0 0 0.0 1.0 3.5 39
08/04/2021 5:40 1.4 91 0.0 0 0.0 1.1 4.1 43
08/04/2021 5:50 1.5 89 3.0 0 0.0 1.1 3.9 37
08/04/2021 6:00 1.4 90 20.1 0 0.0 0.6 2.2 71
08/04/2021 6:10 1.4 91 31.1 32 0.0 0.2 0.5 206
08/04/2021 6:20 1.7 89 63.1 458 0.0 0.7 2.4 51
08/04/2021 6:30 2.3 87 101.7 600 0.0 0.6 2.1 50
08/04/2021 6:40 3.0 84 136.7 600 0.0 0.9 3.2 52
08/04/2021 6:50 4.4 80 167.7 568 0.0 1.1 3.8 54
08/04/2021 7:00 4.9 78 204.7 600 0.0 1.2 4.3 86
08/04/2021 7:10 6.2 73 252.9 550 0.0 0.6 2.3 168
08/04/2021 7:20 6.5 71 267.7 600 0.0 0.5 1.9 119
08/04/2021 7:30 7.5 66 307.5 600 0.0 0.7 2.4 127
08/04/2021 7:40 7.9 65 329.9 590 0.0 1.3 4.8 135
08/04/2021 7:50 7.4 67 303.4 444 0.0 0.8 3.0 185
08/04/2021 8:00 7.5 66 355.9 568 0.0 1.0 3.6 157
08/04/2021 8:10 8.1 63 312.6 436 0.0 1.6 5.7 167
08/04/2021 8:20 8.5 63 432.1 522 0.0 1.6 5.6 169
08/04/2021 8:30 9.4 59 531.1 600 0.0 1.0 3.7 159
08/04/2021 8:40 9.7 57 544.0 590 0.0 1.7 6.3 189
08/04/2021 8:50 9.3 58 390.6 438 0.0 2.3 8.1 191
08/04/2021 9:00 9.3 57 320.8 386 0.0 2.3 8.2 181
08/04/2021 9:10 9.5 57 325.9 250 0.0 1.3 4.6 174
08/04/2021 9:20 9.9 57 361.7 538 0.0 2.2 8.0 176
08/04/2021 9:30 10.4 56 388.2 538 0.0 1.9 6.9 153
08/04/2021 9:40 10.6 56 411.0 556 0.0 2.9 10.4 169
08/04/2021 9:50 10.8 55 488.9 600 0.0 2.4 8.6 176
08/04/2021 10:00 11.2 55 476.0 600 0.0 2.5 9.0 170
08/04/2021 10:10 11.3 55 509.2 600 0.0 2.4 8.7 171
08/04/2021 10:20 11.8 54 564.2 600 0.0 2.6 9.3 169
08/04/2021 10:30 11.6 55 458.3 600 0.0 2.9 10.5 183
08/04/2021 10:40 11.8 54 572.3 600 0.0 2.2 8.1 183
08/04/2021 10:50 12.3 54 547.5 600 0.0 3.0 10.7 166
08/04/2021 11:00 12.8 53 771.4 574 0.0 2.8 10.2 195
08/04/2021 11:10 13.1 52 809.0 580 0.0 2.8 9.9 135
08/04/2021 11:20 13.3 52 463.8 240 0.0 2.4 8.6 136
08/04/2021 11:30 13.3 52 712.5 506 0.0 3.1 11.3 178
08/04/2021 11:40 13.4 52 838.0 544 0.0 3.3 11.8 170
08/04/2021 11:50 13.9 51 845.0 600 0.0 3.1 11.1 175
08/04/2021 12:00 14.3 50 781.8 600 0.0 3.6 13.1 180
08/04/2021 12:10 14.1 51 713.4 600 0.0 2.8 10.0 164
08/04/2021 12:20 14.8 50 744.9 600 0.0 2.4 8.5 173
08/04/2021 12:30 14.6 50 698.1 600 0.0 2.4 8.6 173
08/04/2021 12:40 14.9 50 850.0 600 0.0 3.3 11.8 180
08/04/2021 12:50 15.0 49 836.0 600 0.0 2.9 10.5 162
08/04/2021 13:00 15.3 49 695.3 600 0.0 2.3 8.3 169
08/04/2021 13:10 15.1 49 744.0 600 0.0 3.4 12.1 146
08/04/2021 13:20 15.4 49 762.5 600 0.0 2.3 8.3 159
08/04/2021 13:30 15.8 47 690.7 600 0.0 2.8 9.9 166
08/04/2021 13:40 16.2 47 664.3 600 0.0 2.5 9.1 183
08/04/2021 13:50 16.3 46 707.5 600 0.0 2.1 7.5 141
08/04/2021 14:00 16.6 46 553.3 600 0.0 2.5 9.0 172
08/04/2021 14:10 15.8 47 402.5 260 0.0 2.3 8.4 176
08/04/2021 14:20 16.0 47 316.7 0 0.0 2.1 7.4 136
08/04/2021 14:30 16.4 46 535.6 440 0.0 2.4 8.8 160
08/04/2021 14:40 16.8 44 596.3 600 0.0 2.3 8.4 163
08/04/2021 14:50 16.5 44 410.0 600 0.0 2.4 8.6 142
08/04/2021 15:00 16.7 46 452.2 600 0.0 2.2 8.0 170
08/04/2021 15:10 16.5 47 462.3 600 0.0 2.5 9.1 171
08/04/2021 15:20 16.8 47 414.6 452 0.0 2.4 8.5 178
08/04/2021 15:30 16.7 47 415.7 562 0.0 1.8 6.6 191
08/04/2021 15:40 16.9 46 533.7 600 0.0 2.1 7.6 171
08/04/2021 15:50 17.4 45 590.9 600 0.0 2.1 7.7 168
08/04/2021 16:00 17.6 44 530.2 600 0.0 2.3 8.1 182
08/04/2021 16:10 17.5 45 454.3 600 0.0 2.2 7.8 213
08/04/2021 16:20 17.4 45 391.1 600 0.0 2.1 7.5 174
08/04/2021 16:30 17.5 45 376.6 600 0.0 1.9 6.8 187
08/04/2021 16:40 17.5 45 343.6 600 0.0 2.1 7.6 142
08/04/2021 16:50 17.4 45 276.6 600 0.0 2.1 7.4 164
08/04/2021 17:00 17.2 46 246.7 600 0.0 1.9 7.0 161
08/04/2021 17:10 17.1 45 224.6 600 0.0 2.6 9.2 207
08/04/2021 17:20 17.1 46 217.3 600 0.0 1.7 6.1 195
08/04/2021 17:30 17.3 46 174.4 600 0.0 1.6 5.9 202
08/04/2021 17:40 16.9 46 130.2 530 0.0 1.6 5.7 200
08/04/2021 17:50 16.7 47 85.0 404 0.0 1.4 5.1 180
08/04/2021 18:00 16.4 48 41.7 0 0.0 1.4 4.9 210
08/04/2021 18:10 16.1 50 37.3 2 0.0 1.3 4.5 228
08/04/2021 18:20 15.2 54 8.5 0 0.0 1.1 3.9 266
08/04/2021 18:30 14.2 58 0.0 0 0.0 0.1 0.5 268
08/04/2021 18:40 13.9 59 0.0 0 0.0 0.2 0.8 21
08/04/2021 18:50 13.8 59 0.0 0 0.0 0.7 2.5 43
08/04/2021 19:00 13.7 59 0.0 0 0.0 0.2 0.6 50
08/04/2021 19:10 13.5 59 0.0 0 0.0 0.1 0.2 50
08/04/2021 19:20 12.7 62 0.0 0 0.0 0.6 2.0 16
08/04/2021 19:30 12.4 63 0.0 0 0.0 1.3 4.6 25
08/04/2021 19:40 12.3 65 0.0 0 0.0 2.3 8.4 26
08/04/2021 19:50 12.9 62 0.0 0 0.0 1.3 4.5 12
08/04/2021 20:00 12.4 66 0.0 0 0.0 1.2 4.4 52
08/04/2021 20:10 12.1 67 0.0 0 0.0 1.9 6.9 48
08/04/2021 20:20 12.9 63 0.0 0 0.0 1.6 5.8 55
08/04/2021 20:30 12.7 64 0.0 0 0.0 0.9 3.4 53
08/04/2021 20:40 12.8 65 0.0 0 0.0 0.7 2.5 244
08/04/2021 20:50 12.4 68 0.0 0 0.0 0.9 3.4 26
08/04/2021 21:00 12.9 64 0.0 0 0.0 1.9 6.8 111
08/04/2021 21:10 13.6 59 0.0 0 0.0 2.3 8.2 122
08/04/2021 21:20 13.4 59 0.0 0 0.0 2.0 7.1 108
08/04/2021 21:30 13.3 59 0.0 0 0.0 1.4 5.2 108
08/04/2021 21:40 13.0 60 0.0 0 0.0 1.2 4.2 89
08/04/2021 21:50 12.8 61 0.0 0 0.0 0.7 2.7 99
08/04/2021 22:00 12.7 61 0.0 0 0.0 1.6 5.7 109
08/04/2021 22:10 12.5 61 0.0 0 0.0 0.9 3.2 82
08/04/2021 22:20 12.0 63 0.0 0 0.0 0.7 2.4 102
08/04/2021 22:30 11.7 64 0.0 0 0.0 0.7 2.5 65
08/04/2021 22:40 11.5 66 0.0 0 0.0 0.1 0.4 120
08/04/2021 22:50 11.3 67 0.0 0 0.0 0.3 1.0 59
08/04/2021 23:00 11.0 68 0.0 0 0.0 1.4 5.2 38
08/04/2021 23:10 10.7 69 0.0 0 0.0 1.7 5.9 59
08/04/2021 23:20 11.2 66 0.0 0 0.0 1.6 5.9 60
08/04/2021 23:30 10.7 68 0.0 0 0.0 1.9 6.7 58
08/04/2021 23:40 10.5 70 0.0 0 0.0 1.8 6.4 91
08/04/2021 23:50 10.9 67 0.0 0 0.0 2.1 7.5 100
Anterior Página 1 de 1 Siguiente

NOTA: Tipo de datos según el color:
   - Valores diarios o 10 minutos correctos
   - Valores diarios calculados a partir de un número de datos 10 minutos menor que 144 y mayor que 120, o de un número de datos semihorarios menor que 48 y mayor que 40 (caso de las estaciones de INTIA Y Ministerio)
   - Valores diez minutos estimados


Contacto        Enlaces        Aviso legal